Time;durP1;ratioP1;P1;durP2;ratioP2;P2;SDS_P1;SDS_P2;PMS_P1;PMS_P2;Temp;Humidity;BMP_temperature;BMP_pressure;BME280_temperature;BME280_humidity;BME280_pressure;Samples;Min_cycle;Max_cycle;Signal;HPM_P1;HPM_P2
2023/01/28 00:00:20;;;;;;;21.57;8.60;;;8.50;54.10;;;;;;4990282;28;20697;-89
2023/01/28 00:02:48;;;;;;;12.37;4.63;;;8.30;53.40;;;;;;5001915;28;20478;-88
2023/01/28 00:05:15;;;;;;;9.03;4.10;;;8.00;53.40;;;;;;4972819;28;20453;-89
2023/01/28 00:07:42;;;;;;;8.33;4.60;;;7.90;54.10;;;;;;4989979;28;20536;-90
2023/01/28 00:10:10;;;;;;;9.40;4.87;;;7.90;54.20;;;;;;4974261;28;20991;-89
2023/01/28 00:12:39;;;;;;;11.40;5.87;;;8.00;54.30;;;;;;4988798;28;20476;-89
2023/01/28 00:15:07;;;;;;;8.27;4.57;;;7.90;54.20;;;;;;4973035;28;20538;-90
2023/01/28 00:17:35;;;;;;;4.30;2.83;;;7.90;54.30;;;;;;4987565;28;20541;-90
2023/01/28 00:20:02;;;;;;;3.67;2.20;;;7.90;54.40;;;;;;4967635;28;20570;-88
2023/01/28 00:22:30;;;;;;;2.93;2.33;;;8.00;54.30;;;;;;4985884;28;20991;-89
2023/01/28 00:24:56;;;;;;;5.13;2.47;;;8.00;54.20;;;;;;4985861;28;20447;-88
2023/01/28 00:27:24;;;;;;;2.57;1.80;;;8.10;54.30;;;;;;4987064;28;20462;-89
2023/01/28 00:29:52;;;;;;;2.60;2.03;;;8.00;53.80;;;;;;4982369;28;20450;-89
2023/01/28 00:32:19;;;;;;;2.20;2.00;;;7.90;54.10;;;;;;4970848;28;20447;-89
2023/01/28 00:34:46;;;;;;;1.50;1.40;;;8.00;54.50;;;;;;4983573;28;20479;-89
2023/01/28 00:37:13;;;;;;;2.97;1.43;;;7.50;53.80;;;;;;4988860;28;20497;-89
2023/01/28 00:39:40;;;;;;;2.73;1.77;;;7.30;54.80;;;;;;5000613;28;20454;-88
2023/01/28 00:42:07;;;;;;;3.10;1.53;;;7.40;55.10;;;;;;4974488;28;20454;-88
2023/01/28 00:44:35;;;;;;;1.80;1.50;;;7.60;55.10;;;;;;4985751;28;20442;-88
2023/01/28 00:47:04;;;;;;;1.27;1.17;;;7.40;54.70;;;;;;5000147;28;20548;-89
2023/01/28 00:49:31;;;;;;;1.50;1.40;;;7.70;54.90;;;;;;4967907;28;20465;-90
2023/01/28 00:51:58;;;;;;;1.80;1.30;;;7.80;54.60;;;;;;4997594;28;20443;-87
2023/01/28 00:54:25;;;;;;;1.20;1.10;;;7.90;53.80;;;;;;5002590;28;20505;-89
2023/01/28 00:56:53;;;;;;;1.50;1.40;;;7.80;53.70;;;;;;4987239;28;20461;-92
2023/01/28 00:59:20;;;;;;;1.33;1.23;;;7.40;54.50;;;;;;4986561;28;20801;-89
2023/01/28 01:01:47;;;;;;;2.30;1.43;;;7.20;54.90;;;;;;4983767;28;20835;-89
2023/01/28 01:04:25;;;;;;;3.20;1.40;;;7.00;55.20;;;;;;5005499;28;20484;-89
2023/01/28 01:06:53;;;;;;;1.40;1.30;;;6.80;56.00;;;;;;4970979;28;20450;-88
2023/01/28 01:09:21;;;;;;;2.00;1.40;;;7.00;55.80;;;;;;4993443;28;21183;-89
2023/01/28 01:11:48;;;;;;;1.60;1.30;;;7.10;55.50;;;;;;4983162;28;20449;-90
2023/01/28 01:14:15;;;;;;;2.13;1.40;;;7.40;55.30;;;;;;5002242;28;20462;-88
2023/01/28 01:16:42;;;;;;;2.57;1.40;;;7.60;54.90;;;;;;4983204;28;20475;-89
2023/01/28 01:19:09;;;;;;;1.60;1.50;;;7.50;54.50;;;;;;4971353;28;20448;-88
2023/01/28 01:21:37;;;;;;;3.07;1.70;;;7.40;54.80;;;;;;4985105;28;20541;-89
2023/01/28 01:24:04;;;;;;;1.93;1.30;;;7.40;54.70;;;;;;4984855;28;21948;-89
2023/01/28 01:26:31;;;;;;;1.60;1.30;;;7.40;54.70;;;;;;4986055;28;20457;-89
2023/01/28 01:28:58;;;;;;;1.60;1.30;;;7.30;54.80;;;;;;4983858;28;20450;-88
2023/01/28 01:31:25;;;;;;;1.40;1.30;;;7.20;54.90;;;;;;4978033;28;20545;-89
2023/01/28 01:33:53;;;;;;;1.43;1.33;;;7.20;55.30;;;;;;4965934;28;20474;-89
2023/01/28 01:36:20;;;;;;;1.97;1.60;;;7.30;55.20;;;;;;4970521;28;21014;-89
2023/01/28 01:38:53;;;;;;;1.60;1.27;;;7.50;55.30;;;;;;4982990;28;20995;-89
2023/01/28 01:41:24;;;;;;;1.43;1.33;;;7.50;54.70;;;;;;4988249;28;20532;-89
2023/01/28 01:43:54;;;;;;;1.30;1.20;;;7.70;54.70;;;;;;4984129;28;20489;-89
2023/01/28 01:46:25;;;;;;;4.30;2.00;;;7.80;54.40;;;;;;5001089;28;20447;-87
2023/01/28 01:48:54;;;;;;;2.20;1.53;;;7.80;54.10;;;;;;4981579;28;20459;-89
2023/01/28 01:51:26;;;;;;;2.70;1.73;;;7.90;53.80;;;;;;4989497;28;20460;-89
2023/01/28 01:53:57;;;;;;;2.57;2.10;;;8.10;53.90;;;;;;4987477;28;20478;-88
2023/01/28 01:56:32;;;;;;;2.17;1.40;;;8.20;53.90;;;;;;5002330;28;20457;-88
2023/01/28 01:58:59;;;;;;;2.47;1.73;;;8.10;53.20;;;;;;4982867;28;20441;-90
2023/01/28 02:01:30;;;;;;;2.73;1.50;;;8.00;53.40;;;;;;5000993;28;20534;-88
2023/01/28 02:04:04;;;;;;;1.53;1.30;;;8.10;53.50;;;;;;4966100;28;20463;-88
2023/01/28 02:06:32;;;;;;;2.10;1.50;;;7.80;53.70;;;;;;5005695;28;20462;-88
2023/01/28 02:09:00;;;;;;;1.40;1.30;;;7.80;54.10;;;;;;4969420;28;20964;-87
2023/01/28 02:11:32;;;;;;;2.30;1.90;;;7.70;53.70;;;;;;4973741;28;20987;-89
2023/01/28 02:14:03;;;;;;;2.70;1.60;;;7.80;53.80;;;;;;5004187;28;20484;-89
2023/01/28 02:16:31;;;;;;;1.57;1.33;;;7.60;54.10;;;;;;4989542;28;20454;-88
2023/01/28 02:18:58;;;;;;;2.30;1.23;;;7.80;54.30;;;;;;4993154;28;20453;-89
2023/01/28 02:22:03;;;;;;;1.70;1.60;;;7.80;54.30;;;;;;4991377;28;20442;-89
2023/01/28 02:25:15;;;;;;;2.00;1.20;;;8.00;54.10;;;;;;4990493;28;20533;-89
2023/01/28 02:28:09;;;;;;;1.50;1.40;;;8.00;54.00;;;;;;4911802;28;20488;-89
2023/01/28 02:30:41;;;;;;;1.67;1.57;;;7.80;53.80;;;;;;4983516;28;20461;-88
2023/01/28 02:33:13;;;;;;;3.57;1.70;;;7.30;54.20;;;;;;4972521;28;20469;-89
2023/01/28 02:35:46;;;;;;;2.33;1.40;;;6.90;55.50;;;;;;4971907;28;20998;-89
2023/01/28 02:38:17;;;;;;;2.07;1.37;;;6.70;56.30;;;;;;5009400;28;21018;-88
2023/01/28 02:41:02;;;;;;;1.53;1.37;;;6.90;56.00;;;;;;5006597;28;20458;-89
2023/01/28 02:43:33;;;;;;;1.70;1.30;;;7.10;55.60;;;;;;4989776;28;20744;-89
2023/01/28 02:48:56;;;;;;;1.93;1.20;;;7.30;55.30;;;;;;4989640;28;20450;-90
2023/01/28 02:51:34;;;;;;;1.50;1.40;;;7.40;55.00;;;;;;5007508;28;20545;-88
2023/01/28 02:54:10;;;;;;;1.77;1.53;;;7.50;54.60;;;;;;4972583;28;20473;-88
2023/01/28 02:56:45;;;;;;;1.30;1.20;;;7.20;54.90;;;;;;5005306;28;20496;-89
2023/01/28 02:59:32;;;;;;;1.63;1.30;;;7.30;55.20;;;;;;4974320;28;20458;-87
2023/01/28 03:02:14;;;;;;;1.87;1.60;;;7.30;54.80;;;;;;4990391;28;20489;-88
2023/01/28 03:04:48;;;;;;;2.10;1.40;;;7.50;54.90;;;;;;4991550;28;20453;-89
2023/01/28 03:07:17;;;;;;;1.90;1.37;;;7.30;54.80;;;;;;4991790;28;20605;-88
2023/01/28 03:09:46;;;;;;;1.10;1.00;;;7.20;55.40;;;;;;4989990;28;20445;-89
2023/01/28 03:37:40;;;;;;;1.70;1.00;;;7.30;54.50;;;;;;4989111;28;20454;-88
2023/01/28 03:40:14;;;;;;;1.63;1.53;;;7.30;54.90;;;;;;4994358;28;20462;-89
2023/01/28 03:42:43;;;;;;;2.73;1.30;;;7.50;54.80;;;;;;5004949;28;20459;-89
2023/01/28 03:45:23;;;;;;;1.50;1.40;;;7.60;54.30;;;;;;4989046;28;20450;-89
2023/01/28 03:47:51;;;;;;;2.20;1.30;;;7.60;54.20;;;;;;4978915;28;20447;-88
2023/01/28 03:50:18;;;;;;;1.63;1.40;;;7.50;54.40;;;;;;5006345;28;20849;-87
2023/01/28 03:52:53;;;;;;;1.23;1.13;;;7.50;54.10;;;;;;4970982;28;21018;-89
2023/01/28 03:55:28;;;;;;;1.67;1.40;;;7.40;54.10;;;;;;5006226;28;20478;-88
2023/01/28 03:57:55;;;;;;;3.27;2.00;;;7.20;54.40;;;;;;4988380;28;20539;-90
2023/01/28 04:00:23;;;;;;;2.17;1.70;;;7.10;54.60;;;;;;4995631;28;20531;-89
2023/01/28 04:02:51;;;;;;;2.77;1.77;;;6.80;55.20;;;;;;4970439;28;20470;-89
2023/01/28 04:05:21;;;;;;;3.00;1.60;;;6.70;55.50;;;;;;4989221;28;21145;-88
2023/01/28 04:07:50;;;;;;;2.73;1.83;;;6.90;55.40;;;;;;4987626;28;20855;-88
2023/01/28 04:10:21;;;;;;;1.60;1.50;;;6.90;55.50;;;;;;4988573;28;20450;-87
2023/01/28 04:12:57;;;;;;;1.83;1.70;;;7.00;55.10;;;;;;4971430;28;20478;-87
2023/01/28 04:15:25;;;;;;;1.97;1.87;;;7.10;55.10;;;;;;5021031;28;20601;-88
2023/01/28 04:17:55;;;;;;;1.87;1.77;;;7.30;54.70;;;;;;4973086;28;20447;-89
2023/01/28 04:20:29;;;;;;;1.80;1.47;;;7.00;54.70;;;;;;4988589;28;20454;-89
2023/01/28 04:22:58;;;;;;;5.03;2.60;;;7.00;54.90;;;;;;5014370;28;20466;-89
2023/01/28 04:25:25;;;;;;;1.60;1.50;;;7.00;55.00;;;;;;4990431;28;20505;-89
2023/01/28 04:27:52;;;;;;;3.13;2.00;;;7.10;54.80;;;;;;4980356;28;20508;-89
2023/01/28 04:30:22;;;;;;;1.70;1.60;;;7.10;54.80;;;;;;4988363;28;20486;-88
2023/01/28 04:33:04;;;;;;;2.80;1.50;;;7.00;54.80;;;;;;4985485;28;20566;-89
2023/01/28 04:35:41;;;;;;;2.97;2.00;;;6.70;55.20;;;;;;4974161;28;20603;-88
2023/01/28 04:38:31;;;;;;;2.43;2.23;;;6.80;55.30;;;;;;4977805;28;20454;-88
2023/01/28 04:41:05;;;;;;;1.70;1.50;;;6.90;55.00;;;;;;4969398;28;20478;-89
2023/01/28 04:43:34;;;;;;;2.00;1.60;;;6.80;54.90;;;;;;4972608;28;20466;-86
2023/01/28 04:46:23;;;;;;;1.93;1.73;;;6.90;55.10;;;;;;5003215;28;20473;-89
2023/01/28 04:49:03;;;;;;;3.00;1.93;;;6.90;55.10;;;;;;4984870;28;20527;-89
2023/01/28 04:51:55;;;;;;;2.10;1.80;;;7.10;55.00;;;;;;4987757;28;20710;-89
2023/01/28 04:54:54;;;;;;;2.30;2.10;;;7.10;55.20;;;;;;4988132;28;20489;-88
2023/01/28 04:57:22;;;;;;;2.83;2.63;;;7.00;54.50;;;;;;5004094;28;20457;-89
2023/01/28 04:59:49;;;;;;;2.23;2.03;;;7.20;54.50;;;;;;4987452;28;20524;-89
2023/01/28 05:02:16;;;;;;;2.93;1.80;;;7.40;54.40;;;;;;4991696;28;20457;-87
2023/01/28 05:04:46;;;;;;;2.40;2.20;;;7.40;53.70;;;;;;4990280;28;20439;-88
2023/01/28 05:07:25;;;;;;;1.80;1.60;;;7.30;53.50;;;;;;4972000;28;20564;-89
2023/01/28 05:09:54;;;;;;;1.87;1.77;;;7.10;53.90;;;;;;4973850;28;20826;-90
2023/01/28 05:12:20;;;;;;;2.03;1.60;;;7.20;54.10;;;;;;5003167;28;20447;-87
2023/01/28 05:14:47;;;;;;;3.00;2.30;;;7.20;53.80;;;;;;4971806;28;20497;-90
2023/01/28 05:17:18;;;;;;;3.27;2.00;;;7.00;53.60;;;;;;4988394;28;20449;-87
2023/01/28 05:19:47;;;;;;;3.33;2.07;;;6.90;54.30;;;;;;4989341;28;20452;-88
2023/01/28 05:22:20;;;;;;;2.20;2.00;;;6.60;54.80;;;;;;5003168;28;20704;-89
2023/01/28 05:25:10;;;;;;;3.07;2.13;;;6.80;54.60;;;;;;4995046;28;20480;-89
2023/01/28 05:27:37;;;;;;;2.93;2.50;;;7.00;54.40;;;;;;5019631;28;20450;-89
2023/01/28 05:30:06;;;;;;;1.67;1.50;;;7.10;53.90;;;;;;4983654;28;20453;-89
2023/01/28 05:32:33;;;;;;;2.20;2.00;;;7.20;53.90;;;;;;4989709;28;20884;-89
2023/01/28 05:35:01;;;;;;;4.90;2.20;;;7.30;53.50;;;;;;4983636;28;20470;-89
2023/01/28 05:37:28;;;;;;;5.33;2.20;;;7.10;53.30;;;;;;4987707;28;20569;-90
2023/01/28 05:39:56;;;;;;;4.17;2.73;;;6.90;53.90;;;;;;4987121;28;20473;-90
2023/01/28 05:42:23;;;;;;;2.40;2.20;;;7.10;53.90;;;;;;4988372;28;21359;-88
2023/01/28 05:44:56;;;;;;;3.87;3.47;;;7.20;53.60;;;;;;4999011;28;20448;-89
2023/01/28 05:47:36;;;;;;;8.33;3.50;;;7.30;53.30;;;;;;4987701;28;20729;-86
2023/01/28 05:50:37;;;;;;;3.37;2.63;;;7.30;53.40;;;;;;4982935;28;20462;-88
2023/01/28 05:53:21;;;;;;;4.93;2.93;;;7.10;52.90;;;;;;4986860;28;20788;-89
2023/01/28 05:55:49;;;;;;;3.97;2.93;;;7.20;53.40;;;;;;4986606;28;20486;-88
2023/01/28 05:58:19;;;;;;;2.37;1.93;;;7.30;53.10;;;;;;5004827;28;20752;-88
2023/01/28 06:00:46;;;;;;;2.63;2.10;;;7.40;53.00;;;;;;4976225;28;20465;-90
2023/01/28 06:03:15;;;;;;;2.50;1.93;;;7.30;53.20;;;;;;5002005;28;20549;-88
2023/01/28 06:05:44;;;;;;;3.37;2.13;;;7.20;52.90;;;;;;4972162;28;20509;-88
2023/01/28 06:08:11;;;;;;;4.80;2.90;;;7.10;53.60;;;;;;4999250;28;20719;-89
2023/01/28 06:10:38;;;;;;;2.20;2.00;;;7.20;53.60;;;;;;4990241;28;20480;-88
2023/01/28 06:13:05;;;;;;;3.60;2.27;;;7.00;53.70;;;;;;4968116;28;20466;-87
2023/01/28 06:16:00;;;;;;;4.57;2.73;;;7.10;53.70;;;;;;5001871;28;20562;-89
2023/01/28 06:18:40;;;;;;;3.00;2.53;;;7.10;53.50;;;;;;4986360;28;20486;-88
2023/01/28 06:21:08;;;;;;;3.13;2.83;;;7.20;53.60;;;;;;4985136;28;20446;-87
2023/01/28 06:23:35;;;;;;;5.93;3.33;;;7.40;53.30;;;;;;4970105;28;20995;-87
2023/01/28 06:26:03;;;;;;;3.03;2.73;;;7.40;52.90;;;;;;4964496;28;20661;-86
2023/01/28 06:28:30;;;;;;;3.33;2.93;;;7.30;52.90;;;;;;4968450;28;20454;-87
2023/01/28 06:30:57;;;;;;;3.50;3.17;;;7.30;52.90;;;;;;4978860;28;20581;-87
2023/01/28 06:33:24;;;;;;;3.30;2.60;;;7.30;52.80;;;;;;4999031;28;20595;-86
2023/01/28 06:35:51;;;;;;;3.77;2.80;;;7.20;52.90;;;;;;4997332;28;20569;-87
2023/01/28 06:38:20;;;;;;;4.40;3.10;;;7.10;53.00;;;;;;5016351;28;21015;-89
2023/01/28 06:40:51;;;;;;;4.50;3.60;;;7.10;53.50;;;;;;4985595;28;20442;-87
2023/01/28 06:43:18;;;;;;;5.83;3.57;;;7.30;53.20;;;;;;5001090;28;20481;-88
2023/01/28 06:45:45;;;;;;;4.43;3.53;;;7.40;53.00;;;;;;4965759;28;20478;-88
2023/01/28 06:48:12;;;;;;;3.80;3.20;;;7.60;52.90;;;;;;4980257;28;20451;-87
2023/01/28 06:50:39;;;;;;;3.23;2.90;;;7.80;52.70;;;;;;4999320;28;20469;-86
2023/01/28 06:53:06;;;;;;;4.70;3.73;;;7.80;52.50;;;;;;4979757;28;20561;-87
2023/01/28 06:55:34;;;;;;;5.17;3.10;;;7.80;52.10;;;;;;4968771;28;20784;-86
2023/01/28 06:58:01;;;;;;;4.93;3.67;;;7.90;52.30;;;;;;4967201;28;20442;-87
2023/01/28 07:00:28;;;;;;;3.90;3.40;;;7.90;52.10;;;;;;5001046;28;20962;-88
2023/01/28 07:02:56;;;;;;;6.73;3.40;;;7.90;52.30;;;;;;4966009;28;20466;-87
2023/01/28 07:05:23;;;;;;;6.80;2.73;;;7.80;51.80;;;;;;4985161;28;20510;-87
2023/01/28 07:07:50;;;;;;;3.57;2.73;;;7.80;51.80;;;;;;5000676;28;20986;-87
2023/01/28 07:10:17;;;;;;;3.80;3.00;;;7.70;51.70;;;;;;4999503;28;20439;-87
2023/01/28 07:12:46;;;;;;;4.40;3.23;;;7.50;52.20;;;;;;4972858;28;21058;-87
2023/01/28 07:15:13;;;;;;;3.60;3.17;;;7.60;52.40;;;;;;4998468;28;21122;-88
2023/01/28 07:17:41;;;;;;;3.80;2.93;;;7.70;52.30;;;;;;4988199;28;20534;-87
2023/01/28 07:20:10;;;;;;;3.43;2.87;;;7.80;52.10;;;;;;5012589;28;21002;-87
2023/01/28 07:22:38;;;;;;;4.50;3.70;;;7.70;51.90;;;;;;4969546;28;20493;-88
2023/01/28 07:25:06;;;;;;;6.73;4.80;;;7.70;52.00;;;;;;4997862;28;21072;-86
2023/01/28 07:27:33;;;;;;;6.60;3.13;;;7.50;51.80;;;;;;4969491;28;20454;-87
2023/01/28 07:30:02;;;;;;;5.20;4.70;;;7.40;52.40;;;;;;5000281;28;20450;-86
2023/01/28 07:32:29;;;;;;;5.27;3.53;;;7.40;52.50;;;;;;4987314;28;20472;-86
2023/01/28 07:34:57;;;;;;;10.30;3.53;;;7.40;52.70;;;;;;4998827;28;20454;-87
2023/01/28 07:37:24;;;;;;;5.37;3.10;;;7.50;52.30;;;;;;5005243;28;20470;-86
2023/01/28 07:39:52;;;;;;;3.67;3.30;;;7.70;52.30;;;;;;5002406;28;20465;-87
2023/01/28 07:42:19;;;;;;;6.13;4.60;;;7.80;51.70;;;;;;5002030;28;20454;-86
2023/01/28 07:44:47;;;;;;;5.50;2.83;;;7.50;51.50;;;;;;4988317;28;20450;-86
2023/01/28 07:47:15;;;;;;;4.60;2.63;;;7.30;51.70;;;;;;4998451;28;20451;-87
2023/01/28 07:49:42;;;;;;;5.80;2.80;;;6.90;52.10;;;;;;4987839;28;20987;-86
2023/01/28 07:52:09;;;;;;;3.83;3.47;;;7.00;52.90;;;;;;4981913;28;20486;-87
2023/01/28 07:54:36;;;;;;;4.53;3.47;;;7.10;52.80;;;;;;4986114;28;20964;-87
2023/01/28 07:57:09;;;;;;;3.53;3.17;;;7.00;52.60;;;;;;4982740;28;21172;-86
2023/01/28 07:59:36;;;;;;;6.13;3.10;;;6.40;53.10;;;;;;4985036;28;20455;-86
2023/01/28 08:02:03;;;;;;;2.90;2.47;;;6.40;53.70;;;;;;4987784;28;20517;-86
2023/01/28 08:04:31;;;;;;;3.30;2.63;;;6.50;53.00;;;;;;5001889;28;20450;-86
2023/01/28 08:06:58;;;;;;;2.97;2.57;;;6.40;53.30;;;;;;4969914;28;20457;-86
2023/01/28 08:09:25;;;;;;;3.07;2.80;;;6.40;53.20;;;;;;4969677;28;20450;-86
2023/01/28 08:11:53;;;;;;;4.50;2.73;;;6.60;53.30;;;;;;5001075;28;20453;-86
2023/01/28 08:14:20;;;;;;;4.13;3.10;;;6.80;52.80;;;;;;4990776;28;20475;-86
2023/01/28 08:16:47;;;;;;;6.87;3.53;;;6.90;52.60;;;;;;4993301;28;20474;-85
2023/01/28 08:19:14;;;;;;;3.87;3.20;;;6.70;52.30;;;;;;4971349;28;20452;-86
2023/01/28 08:21:42;;;;;;;3.20;2.90;;;6.70;52.80;;;;;;5003686;28;20446;-86
2023/01/28 08:24:09;;;;;;;3.33;3.00;;;6.80;52.70;;;;;;4984784;28;20474;-87
2023/01/28 08:26:36;;;;;;;3.90;2.83;;;6.90;52.40;;;;;;5002342;28;20445;-86
2023/01/28 08:29:04;;;;;;;6.80;3.17;;;6.90;52.60;;;;;;4987866;28;20451;-86
2023/01/28 08:31:31;;;;;;;3.37;2.57;;;6.60;52.20;;;;;;5017608;28;20443;-86
2023/01/28 08:33:58;;;;;;;3.80;2.60;;;6.30;53.00;;;;;;5017344;28;21050;-85
2023/01/28 08:36:25;;;;;;;6.30;3.07;;;6.30;53.10;;;;;;4971854;28;20465;-87
2023/01/28 08:38:54;;;;;;;3.67;3.20;;;6.40;53.30;;;;;;5001736;28;20520;-85
2023/01/28 08:41:21;;;;;;;3.70;3.10;;;6.60;53.30;;;;;;5001949;28;20451;-87
2023/01/28 08:43:48;;;;;;;10.67;5.10;;;6.60;52.70;;;;;;5017216;28;20558;-85
2023/01/28 08:46:16;;;;;;;4.50;3.27;;;6.80;53.00;;;;;;4999566;28;22566;-86
2023/01/28 08:48:43;;;;;;;3.50;3.20;;;6.80;52.50;;;;;;4985049;28;20470;-86
2023/01/28 08:51:10;;;;;;;5.83;2.90;;;6.80;52.20;;;;;;4988462;28;20465;-86
2023/01/28 08:53:37;;;;;;;5.10;3.30;;;6.90;51.80;;;;;;5013686;28;20475;-86
2023/01/28 08:56:06;;;;;;;6.37;3.53;;;7.00;51.90;;;;;;5016860;28;20474;-85
2023/01/28 08:58:33;;;;;;;3.73;3.30;;;7.30;51.80;;;;;;4969209;28;20446;-86
2023/01/28 09:01:04;;;;;;;4.93;3.40;;;7.40;51.00;;;;;;5004319;28;20977;-86
2023/01/28 09:03:31;;;;;;;7.77;4.47;;;7.30;51.40;;;;;;4970416;28;20510;-86
2023/01/28 09:06:00;;;;;;;4.33;3.03;;;7.10;51.20;;;;;;4988550;28;21107;-85
2023/01/28 09:08:27;;;;;;;4.40;3.13;;;6.90;51.40;;;;;;5020573;28;20470;-86
2023/01/28 09:10:56;;;;;;;5.27;3.10;;;6.90;51.70;;;;;;4985655;28;20454;-88
2023/01/28 09:13:24;;;;;;;3.20;2.63;;;6.80;52.00;;;;;;4985166;28;20466;-87
2023/01/28 09:15:51;;;;;;;5.33;3.73;;;6.90;52.20;;;;;;5004122;28;20491;-86
2023/01/28 09:18:19;;;;;;;4.13;3.13;;;7.00;51.40;;;;;;4990180;28;20439;-86
2023/01/28 09:20:46;;;;;;;6.07;2.97;;;7.00;51.50;;;;;;4994754;28;20446;-87
2023/01/28 09:23:13;;;;;;;3.13;2.90;;;7.20;51.80;;;;;;4988408;28;20467;-88
2023/01/28 09:25:40;;;;;;;3.83;3.20;;;7.20;50.90;;;;;;5021318;28;20986;-87
2023/01/28 09:28:07;;;;;;;4.23;3.27;;;7.10;50.50;;;;;;4989166;28;20450;-87
2023/01/28 09:30:36;;;;;;;4.10;3.00;;;7.10;51.10;;;;;;4991562;28;20469;-87
2023/01/28 09:33:03;;;;;;;4.13;2.80;;;6.90;51.40;;;;;;4985351;28;20545;-88
2023/01/28 09:35:30;;;;;;;5.30;3.40;;;6.90;51.20;;;;;;5007000;28;20999;-87
2023/01/28 09:37:58;;;;;;;6.40;3.23;;;6.70;51.40;;;;;;4971118;28;20951;-87
2023/01/28 09:40:33;;;;;;;4.20;3.00;;;6.90;51.60;;;;;;4974765;28;20518;-87
2023/01/28 09:43:12;;;;;;;3.30;2.83;;;7.10;51.20;;;;;;4988016;28;20524;-87
2023/01/28 09:45:43;;;;;;;2.47;2.23;;;7.10;50.90;;;;;;4974932;28;20449;-88
2023/01/28 09:48:16;;;;;;;2.80;2.30;;;7.10;51.20;;;;;;4985970;28;20447;-87
2023/01/28 09:50:47;;;;;;;3.87;3.43;;;7.10;50.80;;;;;;5022553;28;20450;-87
2023/01/28 09:53:19;;;;;;;3.80;3.50;;;7.00;51.00;;;;;;4984443;28;20485;-87
2023/01/28 09:55:50;;;;;;;3.67;2.90;;;7.00;51.30;;;;;;4990246;28;20438;-87
2023/01/28 09:58:17;;;;;;;3.67;2.77;;;7.10;50.80;;;;;;4965382;28;20541;-85
2023/01/28 10:00:53;;;;;;;4.80;3.37;;;7.20;50.70;;;;;;4966790;28;20454;-85
2023/01/28 10:03:35;;;;;;;3.13;2.80;;;7.10;50.70;;;;;;4982466;28;20553;-86
2023/01/28 10:06:13;;;;;;;3.33;3.00;;;7.30;50.90;;;;;;5011557;28;21385;-87
2023/01/28 10:09:03;;;;;;;6.07;3.17;;;7.30;50.40;;;;;;4984210;28;20454;-86
2023/01/28 10:11:43;;;;;;;3.40;3.10;;;7.20;50.30;;;;;;4983131;28;20456;-86
2023/01/28 10:14:16;;;;;;;3.40;2.90;;;7.30;50.80;;;;;;5012843;28;20481;-87
2023/01/28 10:16:49;;;;;;;3.80;2.93;;;7.30;50.20;;;;;;4999427;28;20481;-86
2023/01/28 10:19:22;;;;;;;4.47;3.70;;;7.20;50.50;;;;;;4965662;28;20453;-86
2023/01/28 10:21:55;;;;;;;3.23;2.40;;;7.00;50.30;;;;;;4984441;28;20446;-87
2023/01/28 10:24:31;;;;;;;3.70;3.17;;;7.10;50.40;;;;;;4966335;28;20532;-86
2023/01/28 10:26:58;;;;;;;7.90;3.53;;;7.20;50.50;;;;;;4967708;28;20446;-86
2023/01/28 10:29:27;;;;;;;2.77;2.50;;;7.00;50.60;;;;;;4985465;28;20455;-87
2023/01/28 10:32:00;;;;;;;3.67;3.37;;;6.80;50.60;;;;;;5008085;28;20545;-87
2023/01/28 10:34:28;;;;;;;3.00;2.70;;;6.60;51.20;;;;;;5023291;28;20592;-87
2023/01/28 10:36:57;;;;;;;3.83;2.80;;;6.60;51.20;;;;;;5023625;28;20508;-86
2023/01/28 10:39:26;;;;;;;3.50;2.60;;;6.70;51.30;;;;;;5003060;28;20438;-87
2023/01/28 10:41:53;;;;;;;3.80;3.10;;;6.80;51.10;;;;;;4990365;28;20453;-87
2023/01/28 10:44:31;;;;;;;3.90;3.50;;;6.60;51.00;;;;;;4985369;28;20471;-86
2023/01/28 10:47:07;;;;;;;4.37;3.17;;;6.50;51.50;;;;;;5000975;28;20472;-87
2023/01/28 10:49:41;;;;;;;4.40;3.40;;;6.80;51.60;;;;;;4977138;28;20454;-87
2023/01/28 10:52:12;;;;;;;3.20;2.90;;;6.80;51.20;;;;;;4972824;28;20504;-86
2023/01/28 10:54:39;;;;;;;3.73;3.17;;;7.10;51.10;;;;;;4986665;28;20431;-87
2023/01/28 10:57:12;;;;;;;3.93;2.90;;;7.00;50.80;;;;;;4988132;28;20537;-86
2023/01/28 10:59:41;;;;;;;2.63;2.43;;;6.80;50.90;;;;;;4988571;28;21161;-88
2023/01/28 11:02:34;;;;;;;3.80;3.50;;;6.70;51.20;;;;;;4987721;28;20466;-86
2023/01/28 11:05:07;;;;;;;3.33;2.93;;;6.60;51.60;;;;;;4968506;28;20527;-85
2023/01/28 11:07:34;;;;;;;4.70;3.83;;;6.70;51.50;;;;;;5004577;28;20465;-87
2023/01/28 11:10:02;;;;;;;5.37;3.33;;;6.90;51.20;;;;;;4984639;28;20447;-85
2023/01/28 11:12:30;;;;;;;3.33;3.00;;;6.80;50.90;;;;;;5002870;28;20470;-87
2023/01/28 11:14:59;;;;;;;3.80;3.03;;;6.90;51.20;;;;;;5002554;28;20443;-86
2023/01/28 11:17:30;;;;;;;3.97;3.30;;;6.90;51.30;;;;;;4985456;28;20483;-86
2023/01/28 11:20:00;;;;;;;4.60;3.83;;;6.80;50.50;;;;;;4986412;28;20497;-87
2023/01/28 11:22:33;;;;;;;8.77;4.10;;;6.60;51.00;;;;;;5021907;28;20463;-88
2023/01/28 11:25:02;;;;;;;2.83;2.63;;;6.70;51.00;;;;;;5018107;28;20552;-87
2023/01/28 11:27:31;;;;;;;3.70;3.27;;;6.80;51.00;;;;;;5006471;28;20451;-88
2023/01/28 11:30:03;;;;;;;3.27;2.97;;;6.80;50.80;;;;;;5002842;28;20458;-86
2023/01/28 11:32:32;;;;;;;5.70;3.70;;;6.70;50.80;;;;;;5021791;28;20470;-86
2023/01/28 11:35:00;;;;;;;3.37;2.80;;;6.80;51.00;;;;;;5004380;28;21200;-87
2023/01/28 11:37:28;;;;;;;3.90;2.97;;;6.90;50.40;;;;;;4989415;28;20462;-88
2023/01/28 11:40:19;;;;;;;2.90;2.70;;;6.80;50.10;;;;;;4990795;28;20459;-87
2023/01/28 11:42:47;;;;;;;4.67;3.70;;;6.60;50.20;;;;;;4986168;28;20475;-87
2023/01/28 11:45:17;;;;;;;5.13;3.83;;;6.70;50.40;;;;;;4969344;28;20469;-87
2023/01/28 11:47:57;;;;;;;4.43;4.00;;;6.60;50.70;;;;;;4990715;28;20488;-87
2023/01/28 11:50:36;;;;;;;3.63;3.30;;;6.80;50.30;;;;;;4986241;28;20457;-87
2023/01/28 11:53:17;;;;;;;3.77;2.97;;;6.50;49.90;;;;;;4969118;28;20473;-87
2023/01/28 11:55:59;;;;;;;8.00;4.40;;;6.60;49.90;;;;;;4987215;28;20572;-87
2023/01/28 11:58:37;;;;;;;8.27;5.37;;;6.80;50.30;;;;;;5002618;28;20887;-88
2023/01/28 12:01:12;;;;;;;7.33;4.80;;;6.90;49.60;;;;;;4983535;28;20457;-85
2023/01/28 12:04:01;;;;;;;5.70;5.20;;;6.90;49.10;;;;;;4987756;28;20478;-88
2023/01/28 12:06:49;;;;;;;3.87;3.50;;;6.90;49.40;;;;;;5002701;28;21150;-87
2023/01/28 12:09:25;;;;;;;6.27;4.67;;;6.80;49.80;;;;;;4997972;28;20454;-87
2023/01/28 12:12:13;;;;;;;7.20;4.30;;;6.90;49.70;;;;;;5001303;28;20528;-86
2023/01/28 12:15:04;;;;;;;7.47;3.90;;;6.90;49.20;;;;;;4971382;28;21049;-86
2023/01/28 12:17:44;;;;;;;7.67;4.77;;;6.90;49.60;;;;;;5019384;28;20470;-86
2023/01/28 12:20:22;;;;;;;6.53;4.87;;;7.10;50.10;;;;;;5000203;28;20446;-87
2023/01/28 12:23:08;;;;;;;4.90;4.40;;;7.10;49.60;;;;;;5004296;28;20473;-85
2023/01/28 12:26:00;;;;;;;6.07;5.20;;;7.00;49.40;;;;;;4992013;28;20449;-87
2023/01/28 12:28:43;;;;;;;4.93;3.97;;;6.90;49.70;;;;;;5003863;28;20993;-87
2023/01/28 12:31:30;;;;;;;3.80;3.40;;;7.00;50.10;;;;;;5001410;28;20538;-86
2023/01/28 12:34:23;;;;;;;5.23;4.10;;;6.90;49.20;;;;;;4986839;28;20470;-86
2023/01/28 12:37:02;;;;;;;8.63;4.17;;;6.80;49.40;;;;;;5018783;28;20478;-86
2023/01/28 12:39:42;;;;;;;4.63;4.23;;;6.70;49.60;;;;;;5018194;28;20952;-86
2023/01/28 12:42:14;;;;;;;9.60;4.17;;;6.70;49.80;;;;;;4983349;28;20454;-84
2023/01/28 12:44:45;;;;;;;6.23;4.60;;;6.80;50.10;;;;;;5001288;28;21041;-85
2023/01/28 12:47:16;;;;;;;7.20;4.30;;;6.90;49.60;;;;;;4983479;28;20459;-85
2023/01/28 12:49:48;;;;;;;5.30;4.03;;;6.90;49.60;;;;;;5003012;28;20454;-86
2023/01/28 12:52:22;;;;;;;5.87;4.20;;;7.00;49.50;;;;;;4986088;28;20982;-88
2023/01/28 12:55:01;;;;;;;6.03;4.17;;;7.00;49.20;;;;;;4990797;28;20454;-87
2023/01/28 12:57:30;;;;;;;8.60;5.90;;;6.80;49.10;;;;;;4987262;28;20531;-86
2023/01/28 13:00:06;;;;;;;11.83;7.80;;;6.90;48.90;;;;;;4989138;28;20913;-86
2023/01/28 13:02:35;;;;;;;5.27;3.30;;;6.80;49.90;;;;;;4989648;28;20988;-87
2023/01/28 13:05:09;;;;;;;5.63;4.17;;;6.80;48.90;;;;;;5000436;28;20553;-86
2023/01/28 13:07:43;;;;;;;4.20;3.80;;;6.90;49.40;;;;;;4989724;28;20450;-85
2023/01/28 13:10:19;;;;;;;4.57;3.77;;;6.90;49.10;;;;;;4986054;28;20450;-87
2023/01/28 13:12:47;;;;;;;5.93;5.13;;;6.70;49.10;;;;;;5004505;28;20478;-87
2023/01/28 13:15:17;;;;;;;6.40;5.00;;;6.90;49.40;;;;;;4987182;28;20514;-87
2023/01/28 13:17:54;;;;;;;4.83;3.80;;;7.00;48.90;;;;;;5007775;28;20465;-86
2023/01/28 13:20:31;;;;;;;3.43;3.13;;;6.80;47.90;;;;;;4986474;28;20449;-87
2023/01/28 13:23:02;;;;;;;8.90;5.60;;;6.80;47.70;;;;;;4988815;28;20470;-87
2023/01/28 13:25:32;;;;;;;10.67;4.77;;;6.60;48.40;;;;;;5020909;28;20534;-88
2023/01/28 13:28:01;;;;;;;5.90;4.40;;;6.90;48.50;;;;;;4973896;28;20455;-86
2023/01/28 13:30:30;;;;;;;5.60;4.83;;;6.90;47.80;;;;;;5020328;28;20529;-87
2023/01/28 13:33:00;;;;;;;6.77;5.30;;;6.70;48.10;;;;;;5003171;28;21014;-86
2023/01/28 13:35:36;;;;;;;5.30;4.70;;;6.90;48.40;;;;;;4987468;28;20893;-87
2023/01/28 13:38:10;;;;;;;6.00;3.73;;;6.80;48.90;;;;;;4989043;28;20469;-86
2023/01/28 13:40:41;;;;;;;7.70;4.90;;;6.90;48.00;;;;;;5003415;28;20444;-87
2023/01/28 13:43:27;;;;;;;7.60;6.07;;;7.00;47.70;;;;;;4988803;28;20507;-85
2023/01/28 13:45:57;;;;;;;7.00;4.53;;;7.10;47.70;;;;;;4991735;28;20454;-87
2023/01/28 13:48:31;;;;;;;6.60;4.23;;;7.10;47.60;;;;;;5004612;28;20884;-86